Perkins, MI (49872)

5:00 AM EST on January 17, 2017 (GMT -0500)
Rock | | Change Station
Active Advisory: Winter Weather Advisory

Elev 958 ft 46.07 °N, 87.16 °W | Updated 3 seconds ago

Snow
Snow
23.5 °F
Feels Like 24 °F
N
0.0
Wind Variable Wind from North
Gusts 0.0 mph

Today
High -- | Low -- °F
--% Chance of Precip.
Yesterday
High -- | Low -- °F
Precip. -- in
Pressure 30.05 in
Visibility 6.0 miles
Clouds Mostly Cloudy 2000 ft
Overcast 3300 ft
Windchill 24 °F
Dew Point 22 °F
Humidity 94%
Rainfall 0.00 in
Snow Depth Not available.
8:24 AM 5:32 PM
Waning Gibbous, 74% visible
METAR KESC 170956Z AUTO 02006KT 6SM -SN BR BKN020 OVC033 M01/M02 A2996 RMK AO2 SLP175 P0003 T10111022 FZRANO
Pressure 30.05 in
Visibility 6.0 miles
Clouds Mostly Cloudy 2000 ft
Overcast 3300 ft
Windchill 24 °F
Dew Point 22 °F
Humidity 94%
Rainfall 0.00 in
Snow Depth Not available.
8:24 AM 5:32 PM
Waning Gibbous, 74% visible
METAR KESC 170956Z AUTO 02006KT 6SM -SN BR BKN020 OVC033 M01/M02 A2996 RMK AO2 SLP175 P0003 T10111022 FZRANO

Get Your Daily Forecast Email!

Thanks for signing up!

Be on the lookout for a verification email in your inbox.

You'll start receiving the daily forecast at 8 AM.

×

10-Day Weather Forecast

Almanac

Astronomy

Jan. 17, 2017 Rise Set
Actual Time
Civil Twilight
Nautical Twilight
Astronomical Twilight
Moon
Length of Visible Light
Length of Day
Tomorrow will be .
, % of the Moon is Illuminated

Today's Extremes

State Highs State Lows

Community

WunderPhotos

Upload Photos

1,962,540 photos uploaded!

WunderBlog® & News

Nearby

Air Quality

  Air Quality AQ Index Pollutant
Not available.

Snow Depth

Station Depth Elevation

Earthquake Activity

City Distance Mag. Time & Date
Minimum magnitude displayed is 2.5.

Coastal Water Temperatures

Place Temperature

Stations

Nearby Weather Stations

Station Location Temp. Windchill Dew Point Humidity Wind Precip. Elev Updated Type
                   

Watches & Warnings

Winter Weather Advisory
Issued: 3:39 AM EST Jan. 17, 2017 – National Weather Service

... Winter Weather Advisory remains in effect until noon EST
today...

Hazardous weather...

* expect a wintry mix of freezing rain and wet snow to diminish this
   morning... then end early this afternoon. Most of the precipitation
   will be confined to areas along and south of Highway US-2.

* Total ice accumulations will be less than one tenth of an
   inch... and wet snow accumulations will be less than 1 inch. The
   greatest ice accumulation will be along and south of Highway
   US-2.

Impacts...

* the snow and ice will result in difficult travel conditions this
   morning... including during the morning commute.

Precautionary/preparedness actions...

* a Winter Weather Advisory means that periods of snow or
   freezing rain will cause travel difficulties. Be prepared for
   slippery roads and use caution while driving.

* Prepare... plan... and stay informed. Visit
   www.Weather.Gov/MQT



Rolfson